Flight Track Log - Related Links

Times and Time Zones

All times are in EDT time to prevent confusion due to time zone crossing. See the UPS1219 flight status page for this flight to view local times or setup timezone preferences in your user account.


Time Position Orientation Groundspeed Altitude Reporting Facility
EDT Latitude Longitude Course Direction KTS MPH feet Rate Location/Type
Wed 10:54:14 PM 38.9420 -77.5020 247° West 173 199 2,000  Level FlightAware ADS-B
Wed 10:54:44 PM 38.9280 -77.5310 238° Southwest 213 245 2,900 1,500 Climbing FlightAware ADS-B
Wed 10:54:54 PM 38.9230 -77.5430 242° Southwest 225 259 3,000 450 Climbing FlightAware ADS-B
Wed 10:55:24 PM 38.9060 -77.5800 239° Southwest 255 293 3,200 1,745 Climbing FlightAware ADS-B
Wed 10:55:49 PM 38.8900 -77.6130 238° Southwest 266 306 4,600 3,709 Climbing FlightAware ADS-B
Wed 10:56:19 PM 38.8710 -77.6520 238° Southwest 270 311 6,600 3,333 Climbing FlightAware ADS-B
Wed 10:56:34 PM 38.8610 -77.6750 241° Southwest 279 321 7,100 667 Climbing FlightAware ADS-B
Wed 10:57:04 PM 38.8460 -77.7210 247° West 281 323 7,100 109 Level FlightAware ADS-B
Wed 10:57:29 PM 38.8330 -77.7600 247° West 278 320 7,200 514 Climbing FlightAware ADS-B
Wed 10:57:39 PM 38.8280 -77.7750 247° West 278 320 7,400 2,700 Climbing FlightAware ADS-B
Wed 10:58:09 PM 38.8120 -77.8220 246° West 291 335 9,000 3,200 Climbing FlightAware ADS-B
Wed 10:58:24 PM 38.8070 -77.8450 254° West 287 330 9,800 2,800 Climbing FlightAware ADS-B
Wed 10:59:09 PM 38.8130 -77.9250 276° West 323 372 11,800 2,471 Climbing FlightAware ADS-B
Wed 10:59:49 PM 38.8250 -78.0060 281° West 356 410 13,300 3,000 Climbing FlightAware ADS-B
Wed 11:00:29 PM 38.8370 -78.0890 281° West 357 411 15,800 3,035 Climbing FlightAware ADS-B
Wed 11:01:14 PM 38.8510 -78.1860 281° West 380 437 17,600 2,600 Climbing FlightAware ADS-B
Wed 11:01:59 PM 38.8540 -78.2900 272° West 397 457 19,700 2,612 Climbing FlightAware ADS-B
Wed 11:02:39 PM 38.8530 -78.3860 269° West 408 470 21,300 2,475 Climbing FlightAware ADS-B
Wed 11:03:19 PM 38.8510 -78.4830 269° West 415 478 23,000 2,259 Climbing FlightAware ADS-B
Wed 11:04:04 PM 38.8500 -78.5930 269° West 425 489 24,500 1,976 Climbing FlightAware ADS-B
Wed 11:04:44 PM 38.8490 -78.6950 269° West 435 501 25,800 1,563 Climbing FlightAware ADS-B
Wed 11:06:03 PM 38.8460 -78.8790 269° West 452 520 27,600 1,968 Climbing FlightAware ADS-B
Wed 11:06:49 PM 38.8430 -79.0270 269° West 441 507 29,900 2,242 Climbing FlightAware ADS-B
Wed 11:07:34 PM 38.8410 -79.1390 269° West 440 506 31,000 825 Climbing FlightAware ADS-B
Wed 11:08:09 PM 38.8330 -79.2360 264° West 450 518 31,000  Level FlightAware ADS-B
Wed 11:08:59 PM 38.8110 -79.3630 258° West 443 510 31,000  Level FlightAware ADS-B
Wed 11:09:39 PM 38.7940 -79.4600 257° West 437 503 31,000  Level FlightAware ADS-B
Wed 11:10:35 PM 38.7660 -79.6090 256° West 443 510 31,000  Level FlightAware ADS-B
Wed 11:11:30 PM 38.7410 -79.7470 257° West 445 512 31,000  Level FlightAware ADS-B
Wed 11:12:14 PM 38.7190 -79.8630 256° West 450 518 31,000  Level FlightAware ADS-B
Wed 11:13:10 PM 38.6660 -79.9940 243° Southwest 456 525 31,000  Level FlightAware ADS-B
Wed 11:13:45 PM 38.6320 -80.0720 241° Southwest 453 521 31,000  Level FlightAware ADS-B
Wed 11:14:48 PM 38.5740 -80.2120 242° Southwest 452 520 31,000  Level FlightAware ADS-B
Wed 11:15:23 PM 38.5440 -80.2820 241° Southwest 452 520 31,000  Level FlightAware ADS-B
Wed 11:16:25 PM 38.5240 -80.4800 263° West 443 510 31,000  Level FlightAware ADS-B
Wed 11:17:21 PM 38.4930 -80.6160 254° West 442 509 31,000  Level FlightAware ADS-B
Wed 11:17:53 PM 38.4740 -80.6990 254° West 444 511 31,000  Level FlightAware ADS-B
Wed 11:18:35 PM 38.4490 -80.8070 254° West 448 516 31,000  Level FlightAware ADS-B
Wed 11:19:21 PM 38.4230 -80.9220 254° West 448 516 31,000  Level FlightAware ADS-B
Wed 11:20:01 PM 38.4000 -81.0220 254° West 441 507 31,000  Level FlightAware ADS-B
Wed 11:20:43 PM 38.3760 -81.1260 254° West 440 506 31,000  Level FlightAware ADS-B
Wed 11:21:25 PM 38.3520 -81.2310 254° West 443 510 31,000  Level FlightAware ADS-B
Wed 11:22:05 PM 38.3280 -81.3310 253° West 443 510 31,000  Level FlightAware ADS-B
Wed 11:22:51 PM 38.3010 -81.4460 253° West 442 509 31,000  Level FlightAware ADS-B
Wed 11:23:33 PM 38.2770 -81.5510 254° West 442 509 31,000  Level FlightAware ADS-B
Wed 11:24:13 PM 38.2540 -81.6500 254° West 442 509 31,000  Level FlightAware ADS-B
Wed 11:24:57 PM 38.2270 -81.7600 253° West 440 506 31,000  Level FlightAware ADS-B
Wed 11:25:38 PM 38.2050 -81.8540 253° West 442 509 31,000  Level FlightAware ADS-B
Wed 11:26:21 PM 38.1780 -81.9680 253° West 444 511 31,000  Level FlightAware ADS-B
Wed 11:27:01 PM 38.1540 -82.0680 253° West 442 509 31,000  Level FlightAware ADS-B
Wed 11:27:45 PM 38.1280 -82.1770 253° West 440 506 31,000  Level FlightAware ADS-B
Wed 11:28:27 PM 38.1060 -82.2660 253° West 445 512 31,000  Level FlightAware ADS-B
Wed 11:29:07 PM 38.0780 -82.3810 253° West 447 514 31,000 -220 Level FlightAware ADS-B
Wed 11:29:49 PM 38.0520 -82.4870 253° West 449 517 30,700 -525 Descending FlightAware ADS-B
Wed 11:30:27 PM 38.0290 -82.5820 253° West 446 513 30,300 -500 Descending FlightAware ADS-B
Wed 11:31:13 PM 38.0000 -82.7000 253° West 447 514 30,000 -234 Descending FlightAware ADS-B
Wed 11:31:44 PM 37.9820 -82.7700 252° West 451 519 30,000  Level FlightAware ADS-B
Wed 11:32:19 PM 37.9595 -82.8639 253° West 453 521 30,000  Level FlightAware ADS-B
Wed 11:33:10 PM 37.9400 -82.9790 258° West 454 522 30,000  Level FlightAware ADS-B
Wed 11:33:26 PM 37.9344 -83.0394 263° West 455 524 30,000  Level FlightAware ADS-B
Wed 11:33:56 PM 37.9237 -83.1178 260° West 451 519 30,000  Level FlightAware ADS-B
Wed 11:34:31 PM 37.9140 -83.1850 260° West 454 522 30,000 -171 Level FlightAware ADS-B
Wed 11:35:06 PM 37.8984 -83.3006 260° West 446 513 29,800 -1,182 Descending FlightAware ADS-B
Wed 11:36:48 PM 37.8612 -83.5616 260° West 452 520 27,300 -1,653 Descending FlightAware ADS-B
Wed 11:37:53 PM 37.8371 -83.7301 260° West 436 502 25,200 -1,914 Descending FlightAware ADS-B
Wed 11:38:44 PM 37.8192 -83.8561 260° West 424 488 23,600 -1,806 Descending FlightAware ADS-B
Wed 11:43:02 PM 37.7290 -84.4680 260° West 390 449 15,900 -1,786 Descending FlightAware ADS-B
Wed 11:43:43 PM 37.7150 -84.5620 259° West 384 442 14,700 -1,063 Descending FlightAware ADS-B
Wed 11:44:21 PM 37.7030 -84.6360 258° West 382 440 14,500 -98 Descending FlightAware ADS-B
Wed 11:45:46 PM 37.6790 -84.7940 259° West 382 440 14,500 -754 Level FlightAware ADS-B
Wed 11:50:03 PM 37.8730 -85.2520 298° West 302 348 10,200 -929 Descending FlightAware ADS-B
Wed 11:50:43 PM 37.9080 -85.3010 312° West 267 307 9,900 -818 Descending FlightAware ADS-B
Wed 11:51:09 PM 37.9290 -85.3310 312° West 260 299 9,300 -1,437 Descending FlightAware ADS-B
Wed 11:51:54 PM 37.9630 -85.3810 311° West 255 293 8,200 -1,543 Descending FlightAware ADS-B
Wed 11:52:19 PM 37.9840 -85.4100 313° West 256 295 7,500 -1,412 Descending FlightAware ADS-B
Wed 11:52:45 PM 38.0040 -85.4380 312° West 248 285 7,000 -1,300 Descending FlightAware ADS-B
Wed 11:53:19 PM 38.0310 -85.4740 314° West 242 278 6,200 -1,500 Descending FlightAware ADS-B
Wed 11:53:41 PM 38.0460 -85.4950 312° West 241 277 5,600 -1,222 Descending FlightAware ADS-B
Wed 11:54:13 PM 38.0710 -85.5320 311° West 243 280 5,100 -625 Descending FlightAware ADS-B
Wed 11:54:29 PM 38.0830 -85.5490 312° West 244 281 5,100  Level FlightAware ADS-B
Wed 11:54:53 PM 38.1020 -85.5740 314° West 247 284 5,100 143 Level FlightAware ADS-B
Wed 11:55:11 PM 38.1210 -85.5870 332° Northwest 263 303 5,200  Climbing FlightAware ADS-B
Wed 11:55:37 PM 38.1500 -85.6020 338° Northwest 262 302 5,100 -778 Descending FlightAware ADS-B
Wed 11:56:05 PM 38.1830 -85.6160 342° North 261 300 4,500 -1,227 Descending FlightAware ADS-B
Wed 11:56:21 PM 38.2010 -85.6250 339° North 262 302 4,200 -571 Descending FlightAware ADS-B
Wed 11:56:47 PM 38.2320 -85.6350 346° North 266 306 4,100 -111 Descending FlightAware ADS-B
Wed 11:57:15 PM 38.2640 -85.6460 345° North 252 290 4,100  Level FlightAware ADS-B
Wed 11:57:45 PM 38.2970 -85.6570 345° North 224 258 4,100  Level FlightAware ADS-B
Wed 11:58:13 PM 38.3250 -85.6670 344° North 210 242 4,100 -150 Level FlightAware ADS-B
Wed 11:58:25 PM 38.3330 -85.6740 326° Northwest 179 206 4,000 -750 Descending FlightAware ADS-B
Wed 11:58:37 PM 38.3370 -85.6850 295° West 157 181 3,800 -1,000 Descending FlightAware ADS-B
Wed 11:59:07 PM 38.3340 -85.7110 262° West 142 163 3,300 -724 Descending FlightAware ADS-B
Wed 11:59:35 PM 38.3300 -85.7340 258° West 147 169 3,100 -286 Descending FlightAware ADS-B
Wed 11:59:49 PM 38.3250 -85.7440 237° Southwest 141 162 3,100  Level FlightAware ADS-B
Thu 12:00:05 AM 38.3160 -85.7490 204° Southwest 135 155 3,100 -571 Level FlightAware ADS-B
Thu 12:00:31 AM 38.3010 -85.7550 197° South 135 155 2,700 -778 Descending FlightAware ADS-B
Thu 12:00:59 AM 38.2830 -85.7590 190° South 145 167 2,400 -409 Descending FlightAware ADS-B
Thu 12:01:15 AM 38.2730 -85.7580 176° South 122 140 2,400 -536 Level FlightAware ADS-B
Thu 12:01:55 AM 38.2520 -85.7540 171° South 115 132 1,900 -618 Descending FlightAware ADS-B
Thu 12:02:23 AM 38.2390 -85.7490 163° South 120 138 1,700 -536 Descending FlightAware ADS-B
Thu 12:02:51 AM 38.2220 -85.7430 165° South 122 140 1,400 -724 Descending FlightAware ADS-B
Thu 12:03:21 AM 38.2050 -85.7380 167° South 121 139 1,000 -621 Descending FlightAware ADS-B
Thu 12:03:49 AM 38.1910 -85.7330 164° South 121 139 800 -429 Descending FlightAware ADS-B
Thu 12:04:15 AM 38.1770 -85.7280 164° South 90 104 -1,846 Descending FlightAware ADS-B
Thu 12:04:53 AM 38.1710 -85.7270 173° South 30 35  Level FlightAware ADS-B
Thu 12:05:19 AM 38.1730 -85.7280 339° North 16 18  Level FlightAware ADS-B
Thu 12:06:37 AM 38.1770 -85.7370 299° West 38 44  Level FlightAware ADS-B
Thu 12:07:15 AM 38.1790 -85.7430 293° West 34 39  Level FlightAware ADS-B
Thu 12:07:45 AM 38.1770 -85.7430 180° South 24 28  Level FlightAware ADS-B

Login

Don't have an account? Register now (free) for customized features, flight alerts, and more!